CERCS-SANT JORDI (Berguèdà)





Hora UTC 07:35
Temperatura 5.3 ºC
Humitat 96.8 %
Pressió 1001.9 hPa
Pluja 0.0 mm
Velocitat vent 0.0 km/h
Direcció vent NNE
Radiació solar 9.7 W/m²

Dades diàries 2022-12-10



Hora UTC (hivern +1h; estiu +2h)
Temperatura (ºC) Humitat (%) Pressió (hPa) Velocitat vent (km/h) Precipitació (mm) Radiació solar (W/m²)
Hora UTC Aire Humitat Pressió Vel. Dir. Vel. Max Dir. Intent. màx 5 min. Rad. Sol.
00:05 8.4 96.9 1000.3 0.0 NNE 0.0 WSW 0.0 0.1
00:10 8.3 96.7 1000.2 0.0 NNE 0.0 WSW 0.0 0.1
00:15 8.3 96.7 1000.2 0.0 NNE 0.0 SSE 0.0 0.2
00:20 8.2 96.6 1000.2 0.0 NNE 0.0 SE 0.0 0.1
00:25 8.2 96.5 1000.2 0.0 NNE 0.0 NE 0.0 0.2
00:30 8.1 96.5 1000.2 0.0 NNE 0.0 WNW 0.0 0.1
00:35 8.0 96.6 1000.1 0.0 NNE 0.0 WNW 0.0 0.1
00:40 8.0 96.7 1000.1 0.0 NNE 0.0 S 0.0 0.1
00:45 8.0 96.8 1000.1 0.0 NNE 0.0 ESE 0.0 0.1
00:50 8.0 96.6 1000.1 0.5 NE 6.1 E 0.0 0.1
00:55 7.9 96.1 1000.1 0.3 NNW 6.1 WNW 0.0 0.1
01:00 8.0 95.6 1000.0 0.6 NNW 6.1 NNE 0.0 0.1
01:05 8.0 95.0 1000.1 0.0 NNE 0.0 N 0.0 0.1
01:10 7.9 95.3 1000.1 0.0 NNE 0.0 SSW 0.0 0.1
01:15 7.8 95.6 1000.2 0.0 NNE 0.0 SSW 0.0 0.1
01:20 7.8 95.9 1000.2 0.0 NNE 0.0 WNW 0.0 0.1
01:25 7.7 95.8 1000.2 2.0 NW 8.8 N 0.0 0.1
01:30 7.7 95.2 1000.2 4.0 NW 11.5 NNW 0.0 0.1
01:35 7.7 94.9 1000.3 2.4 WNW 6.1 NW 0.0 0.1
01:40 7.7 95.0 1000.3 1.6 WNW 8.8 WSW 0.0 0.1
01:45 7.6 95.0 1000.3 0.6 W 6.1 WNW 0.0 0.1
01:50 7.7 95.3 1000.3 0.0 NNE 0.0 W 0.0 0.1
01:55 7.6 95.5 1000.4 1.1 NNW 8.8 NNE 0.0 0.1
02:00 7.6 95.4 1000.4 0.5 NW 6.1 NW 0.0 0.1
02:05 7.5 95.4 1000.4 2.6 NW 11.5 NW 0.0 0.2
02:10 7.6 94.8 1000.4 4.1 NW 11.5 NNW 0.0 0.1
02:15 7.7 93.9 1000.4 3.6 WNW 11.5 WNW 0.0 0.2
02:20 7.8 93.1 1000.4 4.3 WNW 11.5 NNW 0.0 0.1
02:25 7.8 92.8 1000.5 5.6 NW 14.2 NW 0.0 0.1
02:30 7.9 92.4 1000.5 0.0 NNE 0.0 NW 0.0 0.2
02:35 7.7 93.1 1000.5 0.0 NNE 0.0 SW 0.0 0.2
02:40 7.5 94.1 1000.5 0.0 NNE 0.0 SW 0.0 0.1
02:45 7.4 94.8 1000.4 0.0 W 3.4 W 0.0 0.1
02:50 7.3 95.0 1000.4 0.0 W 3.4 WNW 0.0 0.1
02:55 7.3 95.2 1000.5 0.0 NNE 0.0 NNE 0.0 0.1
03:00 7.3 95.2 1000.5 0.1 SSW 3.4 SSW 0.0 0.1
03:05 7.1 95.3 1000.5 0.6 SW 6.1 SSW 0.0 0.2
03:10 7.1 95.6 1000.6 0.1 WNW 3.4 NNW 0.0 0.1
03:15 7.0 95.8 1000.6 0.6 WNW 6.1 NW 0.0 0.1
03:20 7.1 95.9 1000.6 0.2 SSW 3.4 S 0.0 0.1
03:25 7.0 95.8 1000.5 0.0 SW 3.4 SSW 0.0 0.1
03:30 7.0 95.9 1000.5 1.6 SSW 8.8 SSW 0.0 0.2
03:35 6.9 95.7 1000.5 0.0 NNE 0.0 SSW 0.0 0.1
03:40 6.8 95.9 1000.6 0.0 NNE 0.0 S 0.0 0.1
03:45 6.9 96.2 1000.6 0.0 NNE 0.0 NE 0.0 0.1
03:50 7.0 96.0 1000.6 0.0 NNE 0.0 ENE 0.0 0.2
03:55 6.9 96.0 1000.7 0.5 E 6.1 E 0.0 0.1
04:00 6.9 96.0 1000.7 1.7 E 6.1 E 0.0 0.1
04:05 7.0 95.6 1000.7 0.0 NNE 0.0 ENE 0.0 0.1
04:10 6.9 95.5 1000.7 0.0 NNE 0.0 NNW 0.0 0.1
04:15 6.9 95.6 1000.7 0.0 NNE 0.0 NW 0.0 0.1
04:20 6.8 95.6 1000.7 0.0 NNE 0.0 NW 0.0 0.2
04:25 6.7 95.9 1000.7 0.0 NNE 0.0 WSW 0.0 0.1
04:30 6.7 95.9 1000.8 0.0 NNE 0.0 SW 0.0 0.1
04:35 6.6 96.3 1000.8 0.4 SSW 6.1 SW 0.0 0.1
04:40 6.7 96.4 1000.8 0.0 NNE 0.0 WSW 0.0 0.1
04:45 6.7 96.5 1000.7 0.0 NNE 0.0 NE 0.0 0.1
04:50 6.7 96.2 1000.8 0.0 NNE 0.0 N 0.0 0.1
04:55 6.6 96.2 1000.8 0.0 NNE 0.0 NE 0.0 0.2
05:00 6.5 96.0 1000.9 0.0 NNE 0.0 SSW 0.0 0.1
05:05 6.4 96.2 1000.8 0.0 NNE 0.0 WNW 0.0 0.1
05:10 6.3 96.4 1000.9 0.0 NNE 0.0 W 0.0 0.1
05:15 6.2 96.6 1000.9 0.0 NNE 0.0 W 0.0 0.2
05:20 6.1 96.6 1000.9 0.0 NNE 0.0 S 0.0 0.1
05:25 6.2 96.9 1000.9 0.0 NNE 0.0 S 0.0 0.1
05:30 6.2 96.8 1001.0 0.0 NNE 0.0 S 0.0 0.1
05:35 6.1 96.8 1001.0 0.0 NNE 0.0 WNW 0.0 0.1
05:40 6.1 97.0 1001.0 0.0 NNE 0.0 WNW 0.0 0.2
05:45 6.1 96.9 1001.0 0.0 NNE 0.0 S 0.0 0.1
05:50 6.1 97.0 1001.1 0.0 NNE 0.0 SSW 0.0 0.1
05:55 6.1 97.1 1001.1 0.0 NNE 0.0 NNW 0.0 0.1
06:00 6.2 97.1 1001.1 0.0 NNE 0.0 N 0.0 0.1
06:05 6.3 96.8 1001.2 0.0 NNE 0.0 NNE 0.0 0.1
06:10 6.1 96.3 1001.2 0.0 NNE 0.0 NE 0.0 0.1
06:15 6.0 96.3 1001.3 0.0 NNE 0.0 SW 0.0 0.1
06:20 5.9 96.4 1001.3 0.0 NNE 0.0 SW 0.0 0.1
06:25 5.8 96.4 1001.4 0.0 NNE 0.0 SSW 0.0 0.2
06:30 5.6 96.5 1001.3 0.0 NNE 0.0 NNE 0.0 0.1
06:35 5.6 96.8 1001.3 0.0 NNE 0.0 WNW 0.0 0.2
06:40 5.6 97.1 1001.4 0.0 NNE 0.0 SE 0.0 0.2
06:45 5.7 97.1 1001.5 0.0 NNE 0.0 NE 0.0 0.2
06:50 5.6 96.9 1001.6 0.0 NNE 0.0 NNE 0.0 0.3
06:55 5.4 96.7 1001.7 0.0 NNE 0.0 NNE 0.0 0.7
07:00 5.4 97.0 1001.7 1.8 NNE 8.8 NE 0.0 1.4
07:05 5.7 97.1 1001.8 2.9 NE 8.8 NE 0.0 2.1
07:10 5.5 96.2 1001.8 0.0 NNE 0.0 NNE 0.0 3.2
07:15 5.3 96.0 1001.8 0.5 SSW 3.4 SSW 0.0 4.5
07:20 5.3 96.4 1001.8 0.0 NNE 0.0 SSW 0.0 6.0
07:25 5.2 96.5 1001.8 0.2 NNE 6.1 NNE 0.0 7.2
07:30 5.2 96.8 1001.9 1.3 N 6.1 NE 0.0 8.2
07:35 5.3 96.8 1001.9 0.0 NNE 0.0 NNW 0.0 9.7
Màxima 8.4 97.1 1001.9 5.6 NW 14.2 NW 0.0 9.7
Mínima 5.1 92.4 1000.0
Total 0.0